Franksville, WI

1:59 PM CDT on May 25, 2015 (GMT -0500)
K and U | | Change Station
CLOSE
Current Station
Personal Weather Station
Location: Franksville, WI
Elevation: 720 ft
Nearby Weather Stations

Elev 720 ft 42.79 °N, 88.02 °W | Updated 14 minutes ago

Mostly Cloudy
Mostly Cloudy
77.4 °F
Feels Like 79 °F
N
3.8
Wind Variable Wind from SW

Today
High -- | Low -- °F
--% Chance of Precip.
Yesterday
High -- | Low -- °F
Precip. -- in
5:20 AM 8:17 PM
Waxing Crescent, 51% visible
Pressure 29.85 in
Visibility 10.0 miles
Clouds Scattered Clouds 2900 ft
Mostly Cloudy 3400 ft
Heat Index 79 °F
Dew Point 77 °F
Humidity 99%
Rainfall 0.05 in
Snow Depth Not available.
UV 6 out of 12
Pollen .40 out of 12
Air Quality Not available.
Flu Activity Sporadic
METAR KRAC 251853Z AUTO 23015G25KT 10SM SCT029 BKN034 24/17 A2986 RMK AO2 PK WND 22026/1821 SLP108 T02390167

More Conditions Fewer Conditions

Pressure 29.85 in
Visibility 10.0 miles
Clouds Scattered Clouds 2900 ft
Mostly Cloudy 3400 ft
Heat Index 79 °F
Dew Point 77 °F
Humidity 99%
Rainfall 0.05 in
Snow Depth Not available.
UV 6 out of 12
Pollen .40 out of 12
Air Quality Not available.
Flu Activity Sporadic
METAR KRAC 251853Z AUTO 23015G25KT 10SM SCT029 BKN034 24/17 A2986 RMK AO2 PK WND 22026/1821 SLP108 T02390167

More Conditions Fewer Conditions

10-Day Weather Forecast

Almanac

Astronomy

May. 25, 2015 Rise Set
Actual Time
Civil Twilight
Nautical Twilight
Astronomical Twilight
Moon
Length of Visible Light
Length of Day
Tomorrow will be .
, % of the Moon is Illuminated

Today's Extremes

State Highs State Lows

Community

WunderPhotos

Upload Photos

1,824,080 photos uploaded!

WunderBlogs® & News

Nearby

Air Quality

  Air Quality AQ Index Pollutant
Not available.

Snow Depth

Station Depth Elevation

Earthquake Activity

City Distance Mag. Time & Date
Minimum magnitude displayed is 2.5.

Coastal Water Temperatures

Place Temperature

Stations

Nearby Weather Stations

Station Location Temp. Windchill Dew Point Humidity Wind Precip. Elev Updated Type